createdAt,value
2023-02-16T00:03:05.958Z,56
2023-02-16T00:13:06.201Z,56
2023-02-16T00:23:05.958Z,56
2023-02-16T00:33:05.874Z,56
2023-02-16T00:43:05.943Z,56
2023-02-16T00:53:05.883Z,56
2023-02-16T01:03:05.959Z,56
2023-02-16T01:13:05.900Z,56
2023-02-16T01:23:05.936Z,56
2023-02-16T01:33:05.837Z,56
2023-02-16T01:43:05.936Z,56
2023-02-16T01:53:06.052Z,56
2023-02-16T02:03:05.965Z,56
2023-02-16T02:13:06.161Z,56
2023-02-16T02:23:05.911Z,56
2023-02-16T02:33:06.035Z,56
2023-02-16T02:43:05.916Z,58
2023-02-16T02:53:06.041Z,59
2023-02-16T03:03:05.891Z,62
2023-02-16T03:13:06.064Z,62
2023-02-16T03:23:06.110Z,63
2023-02-16T03:33:06.023Z,64
2023-02-16T03:43:06.104Z,64
2023-02-16T03:53:06.051Z,66
2023-02-16T04:03:06.135Z,66
2023-02-16T04:13:06.060Z,66
2023-02-16T04:23:06.153Z,66
2023-02-16T04:33:06.048Z,66
2023-02-16T04:43:06.095Z,66
2023-02-16T04:53:06.036Z,66
2023-02-16T05:03:06.106Z,66
2023-02-16T05:13:06.276Z,66
2023-02-16T05:23:06.139Z,66
2023-02-16T05:33:06.226Z,66
2023-02-16T05:43:06.142Z,66
2023-02-16T05:53:06.266Z,66
2023-02-16T06:03:06.118Z,66
2023-02-16T06:13:06.285Z,66
2023-02-16T06:23:06.084Z,66
2023-02-16T06:33:06.229Z,66
2023-02-16T06:43:06.319Z,66
2023-02-16T06:53:06.238Z,66
2023-02-16T07:03:06.365Z,66
2023-02-16T07:13:06.213Z,64.5
2023-02-16T07:23:06.287Z,62.5
2023-02-16T07:33:06.285Z,61
2023-02-16T07:43:06.315Z,60.5
2023-02-16T07:53:06.323Z,60.5
2023-02-16T08:03:06.428Z,61.5
2023-02-16T08:13:06.442Z,61
2023-02-16T08:23:06.277Z,62
2023-02-16T08:33:06.420Z,62
2023-02-16T08:43:06.277Z,64
2023-02-16T08:53:06.452Z,64
2023-02-16T09:03:06.284Z,62.5
2023-02-16T09:13:06.404Z,64
2023-02-16T09:23:06.275Z,64
2023-02-16T09:33:06.420Z,66
2023-02-16T09:43:06.452Z,69
2023-02-16T09:53:06.376Z,66.5
2023-02-16T10:03:06.470Z,65.5
2023-02-16T10:13:06.415Z,64
2023-02-16T10:23:06.500Z,64
2023-02-16T10:33:06.404Z,62.5
2023-02-16T10:43:06.578Z,62.5
2023-02-16T10:53:06.521Z,57
2023-02-16T11:03:06.555Z,54.5
2023-02-16T11:13:06.900Z,54
2023-02-16T11:23:06.498Z,50.5
2023-02-16T11:33:06.555Z,52
2023-02-16T11:43:06.594Z,50.5
2023-02-16T11:53:06.475Z,52
2023-02-16T12:03:06.618Z,52
2023-02-16T12:13:06.797Z,52.5
2023-02-16T12:23:06.617Z,52.5
2023-02-16T12:33:06.566Z,52.5
2023-02-16T12:43:06.621Z,51.5
2023-02-16T12:53:06.731Z,50.5
2023-02-16T13:03:06.608Z,50.5
2023-02-16T13:13:06.786Z,50.5
2023-02-16T13:23:06.717Z,51.5
2023-02-16T13:33:06.647Z,52
2023-02-16T13:43:06.698Z,52
2023-02-16T13:53:06.656Z,52
2023-02-16T14:03:06.733Z,50.5
2023-02-16T14:13:06.661Z,50.5
2023-02-16T14:23:06.740Z,50.5
2023-02-16T14:33:06.598Z,51.5
2023-02-16T14:43:06.837Z,52
2023-02-16T14:53:06.818Z,51
2023-02-16T15:03:06.713Z,52
2023-02-16T15:13:06.881Z,51
2023-02-16T15:23:06.907Z,52
2023-02-16T15:33:06.942Z,52
2023-02-16T15:43:06.984Z,52
2023-02-16T15:53:06.890Z,52
2023-02-16T16:03:07.099Z,52
2023-02-16T16:13:06.731Z,52
2023-02-16T16:23:06.795Z,52
2023-02-16T16:33:06.910Z,52
2023-02-16T16:43:06.794Z,52
2023-02-16T16:53:06.902Z,57.5
2023-02-16T17:03:06.802Z,59.5
2023-02-16T17:13:06.913Z,59
2023-02-16T17:23:06.758Z,60
2023-02-16T17:33:06.915Z,58.5
2023-02-16T17:43:06.801Z,57
2023-02-16T17:53:06.976Z,55.5
2023-02-16T18:03:06.786Z,59
2023-02-16T18:13:06.897Z,54.5
2023-02-16T18:23:06.976Z,54.5
2023-02-16T18:33:06.928Z,54.5
2023-02-16T18:43:06.974Z,53.5
2023-02-16T18:53:06.943Z,53
2023-02-16T19:03:06.978Z,52.5
2023-02-16T19:13:06.945Z,55.5
2023-02-16T19:23:07.012Z,57.5
2023-02-16T19:33:07.125Z,56.5
2023-02-16T19:43:06.982Z,56.5
2023-02-16T19:53:07.094Z,56.5
2023-02-16T20:03:07.062Z,58
2023-02-16T20:13:07.127Z,58
2023-02-16T20:23:06.991Z,58
2023-02-16T20:33:07.106Z,59
2023-02-16T20:43:07.115Z,58.5
2023-02-16T20:53:07.143Z,58.5
2023-02-16T21:03:07.184Z,58.5
2023-02-16T21:13:07.173Z,58.5
2023-02-16T21:23:06.989Z,58.5
2023-02-16T21:33:07.100Z,58.5
2023-02-16T21:43:07.213Z,60
2023-02-16T21:53:07.162Z,60.5
2023-02-16T22:03:07.206Z,60.5
2023-02-16T22:13:07.110Z,60.5
2023-02-16T22:23:07.174Z,60.5
2023-02-16T22:33:07.357Z,60
2023-02-16T22:43:07.177Z,58.5
2023-02-16T22:53:07.331Z,58.5
2023-02-16T23:03:07.164Z,58.5
2023-02-16T23:13:07.342Z,56.5
2023-02-16T23:23:07.203Z,57
2023-02-16T23:33:07.346Z,58
2023-02-16T23:43:07.177Z,58
2023-02-16T23:53:07.289Z,58
